South Arkansas Regional At Goodwin Field
KELD : now visible

Airfield :











YOU CAN JOIN US ON...

 
LOGIN :

Register | Disclaimer

   EN    FR    IT 

 









Legend :    VFR   Marginal VFR   IFR   Intensive IFR   Very Intensive IFR
Visi :
Ceiling :
>= 8 km
>= 3000ft
5 to 8 km
1000 to 3000 ft
1500m to 5 km
500 to 1000 ft
800 to 1500m
200 to 500 ft
< 800m
< 200 ft
Symbols :   Thunderstorms  Fog  Heavy snow  Heavy precipitations  Wind > 20 kt






- Airport Elevation : 277 ft
- IATA code : ELD


KELD - South Arkansas Regional At Goodwin Field

CURRENT METAR :
  • 222353Z AUTO 04004KT 10SM BKN065 10/06 A3006 RMK AO2 SLP178 T01000061 10128 20100 53012

EXPIRED METARs :
  • 222329Z AUTO 05004KT 10SM SCT026 BKN060 11/06 A3006 RMK AO2 T01060061
  • 222253Z AUTO 03005KT 10SM OVC026 12/07 A3005 RMK AO2 SLP173 T01170067
  • 222153Z AUTO 06007KT 10SM OVC025 12/06 A3004 RMK AO2 SLP170 T01220061

TAF KELD
Valid from the 23 at 00:00 until the 24 at 00:00 UTC


222333Z 2300/2324 05004KT P6SM SCT020 BKN060
FM231200 04007KT P6SM BKN020
FM231500 06007KT P6SM OVC020
KZFW FIR / North America



MET'MAP, your aeronautical weather chart ! - Copyright ORBIFLY December 2007 - Disclaimer

ORBIFLY MET'MAP TEAM :

Programming & Development : Alexandra Zaïnal
Concept & original design : Baudouin d'Aumeries
Assistance for programming : Marc-Olivier Méhu
Technical & hardware support : Manuel Goepfert

Contact : metmap@orbifly.com




SOURCES & CREDITS :

   NOAA       Earth
Advisory